sensor_id;sensor_type;location;lat;lon;timestamp;pressure;altitude;pressure_sealevel;temperature;humidity
48077;BME280;33854;57.708;12.008;2023-04-01T00:01:56;99960.97;;;-0.81;100.00
48077;BME280;33854;57.708;12.008;2023-04-01T00:04:22;99959.28;;;-0.82;100.00
48077;BME280;33854;57.708;12.008;2023-04-01T00:06:47;99960.19;;;-0.88;100.00
48077;BME280;33854;57.708;12.008;2023-04-01T00:09:13;99959.34;;;-0.88;100.00
48077;BME280;33854;57.708;12.008;2023-04-01T00:11:39;99961.94;;;-0.91;100.00
48077;BME280;33854;57.708;12.008;2023-04-01T00:14:06;99955.19;;;-0.97;100.00
48077;BME280;33854;57.708;12.008;2023-04-01T00:16:32;99955.22;;;-0.98;100.00
48077;BME280;33854;57.708;12.008;2023-04-01T00:18:58;99963.75;;;-0.99;100.00
48077;BME280;33854;57.708;12.008;2023-04-01T00:21:23;99965.44;;;-1.00;100.00
48077;BME280;33854;57.708;12.008;2023-04-01T00:23:50;99971.47;;;-1.01;100.00
48077;BME280;33854;57.708;12.008;2023-04-01T00:26:15;99978.34;;;-1.09;100.00
48077;BME280;33854;57.708;12.008;2023-04-01T00:28:44;99973.25;;;-1.10;100.00
48077;BME280;33854;57.708;12.008;2023-04-01T00:31:10;99973.34;;;-1.15;100.00
48077;BME280;33854;57.708;12.008;2023-04-01T00:33:36;99979.34;;;-1.19;100.00
48077;BME280;33854;57.708;12.008;2023-04-01T00:36:16;99985.34;;;-1.23;100.00
48077;BME280;33854;57.708;12.008;2023-04-01T00:38:42;99988.03;;;-1.32;100.00
48077;BME280;33854;57.708;12.008;2023-04-01T00:41:10;99991.44;;;-1.38;100.00
48077;BME280;33854;57.708;12.008;2023-04-01T00:43:39;99988.94;;;-1.42;100.00
48077;BME280;33854;57.708;12.008;2023-04-01T00:46:05;99984.78;;;-1.54;100.00
48077;BME280;33854;57.708;12.008;2023-04-01T00:48:33;99992.44;;;-1.49;100.00
48077;BME280;33854;57.708;12.008;2023-04-01T00:51:08;99991.59;;;-1.51;100.00
48077;BME280;33854;57.708;12.008;2023-04-01T00:53:38;99990.75;;;-1.53;100.00
48077;BME280;33854;57.708;12.008;2023-04-01T00:56:13;100001.00;;;-1.55;100.00
48077;BME280;33854;57.708;12.008;2023-04-01T00:58:43;100003.66;;;-1.64;100.00
48077;BME280;33854;57.708;12.008;2023-04-01T01:01:11;100009.63;;;-1.65;100.00
48077;BME280;33854;57.708;12.008;2023-04-01T01:03:37;100025.84;;;-1.69;100.00
48077;BME280;33854;57.708;12.008;2023-04-01T01:08:51;100025.91;;;-1.77;100.00
48077;BME280;33854;57.708;12.008;2023-04-01T01:11:25;100018.25;;;-1.77;100.00
48077;BME280;33854;57.708;12.008;2023-04-01T01:14:00;100030.22;;;-1.82;100.00
48077;BME280;33854;57.708;12.008;2023-04-01T01:16:30;100031.91;;;-1.81;100.00
48077;BME280;33854;57.708;12.008;2023-04-01T01:20:04;100039.63;;;-1.88;100.00
48077;BME280;33854;57.708;12.008;2023-04-01T01:27:41;100045.69;;;-2.03;100.00
48077;BME280;33854;57.708;12.008;2023-04-01T01:30:59;100033.00;;;-2.13;100.00
48077;BME280;33854;57.708;12.008;2023-04-01T01:36:12;100033.88;;;-2.23;100.00
48077;BME280;33854;57.708;12.008;2023-04-01T01:38:39;100042.44;;;-2.27;100.00
48077;BME280;33854;57.708;12.008;2023-04-01T01:41:07;100044.19;;;-2.33;100.00
48077;BME280;33854;57.708;12.008;2023-04-01T01:43:41;100037.34;;;-2.32;100.00
48077;BME280;33854;57.708;12.008;2023-04-01T01:46:14;100048.44;;;-2.30;100.00
48077;BME280;33854;57.708;12.008;2023-04-01T01:48:42;100050.16;;;-2.34;100.00
48077;BME280;33854;57.708;12.008;2023-04-01T01:51:09;100043.38;;;-2.47;100.00
48077;BME280;33854;57.708;12.008;2023-04-01T01:53:35;100056.13;;;-2.44;100.00
48077;BME280;33854;57.708;12.008;2023-04-01T01:56:01;100053.63;;;-2.51;100.00
48077;BME280;33854;57.708;12.008;2023-04-01T01:58:35;100051.94;;;-2.54;100.00
48077;BME280;33854;57.708;12.008;2023-04-01T02:01:13;100043.47;;;-2.62;100.00
48077;BME280;33854;57.708;12.008;2023-04-01T02:03:42;100036.66;;;-2.69;100.00
48077;BME280;33854;57.708;12.008;2023-04-01T02:06:13;100062.19;;;-2.60;100.00
48077;BME280;33854;57.708;12.008;2023-04-01T02:08:50;100069.00;;;-2.62;100.00
48077;BME280;33854;57.708;12.008;2023-04-01T02:11:18;100058.81;;;-2.71;100.00
48077;BME280;33854;57.708;12.008;2023-04-01T02:14:01;100068.16;;;-2.68;100.00
48077;BME280;33854;57.708;12.008;2023-04-01T02:16:34;100063.91;;;-2.75;100.00
48077;BME280;33854;57.708;12.008;2023-04-01T02:19:03;100071.56;;;-2.75;100.00
48077;BME280;33854;57.708;12.008;2023-04-01T02:21:33;100066.53;;;-2.84;100.00
48077;BME280;33854;57.708;12.008;2023-04-01T02:24:01;100076.72;;;-2.78;100.00
48077;BME280;33854;57.708;12.008;2023-04-01T02:26:28;100081.81;;;-2.80;100.00
48077;BME280;33854;57.708;12.008;2023-04-01T02:28:54;100087.81;;;-2.87;100.00
48077;BME280;33854;57.708;12.008;2023-04-01T02:31:21;100086.13;;;-2.96;100.00
48077;BME280;33854;57.708;12.008;2023-04-01T02:33:48;100079.31;;;-2.97;100.00
48077;BME280;33854;57.708;12.008;2023-04-01T02:36:16;100080.16;;;-3.01;100.00
48077;BME280;33854;57.708;12.008;2023-04-01T02:38:44;100079.28;;;-2.95;100.00
48077;BME280;33854;57.708;12.008;2023-04-01T02:41:10;100087.81;;;-2.99;100.00
48077;BME280;33854;57.708;12.008;2023-04-01T02:43:36;100089.50;;;-3.01;100.00
48077;BME280;33854;57.708;12.008;2023-04-01T02:46:01;100092.91;;;-3.04;100.00
48077;BME280;33854;57.708;12.008;2023-04-01T02:48:27;100094.66;;;-3.10;100.00
48077;BME280;33854;57.708;12.008;2023-04-01T02:50:53;100097.19;;;-3.12;100.00
48077;BME280;33854;57.708;12.008;2023-04-01T02:53:18;100092.94;;;-3.14;100.00
48077;BME280;33854;57.708;12.008;2023-04-01T02:55:43;100092.97;;;-3.16;100.00
48077;BME280;33854;57.708;12.008;2023-04-01T02:58:10;100092.94;;;-3.23;100.00
48077;BME280;33854;57.708;12.008;2023-04-01T03:00:35;100103.16;;;-3.20;100.00
48077;BME280;33854;57.708;12.008;2023-04-01T03:03:01;100112.50;;;-3.18;100.00
48077;BME280;33854;57.708;12.008;2023-04-01T03:05:27;100126.13;;;-3.25;100.00
48077;BME280;33854;57.708;12.008;2023-04-01T03:07:53;100118.47;;;-3.29;100.00
48077;BME280;33854;57.708;12.008;2023-04-01T03:10:19;100121.03;;;-3.28;100.00
48077;BME280;33854;57.708;12.008;2023-04-01T03:12:44;100124.44;;;-3.30;100.00
48077;BME280;33854;57.708;12.008;2023-04-01T03:15:11;100132.09;;;-3.27;100.00
48077;BME280;33854;57.708;12.008;2023-04-01T03:17:38;100146.53;;;-3.29;100.00
48077;BME280;33854;57.708;12.008;2023-04-01T03:20:05;100153.34;;;-3.34;100.00
48077;BME280;33854;57.708;12.008;2023-04-01T03:22:30;100158.47;;;-3.36;100.00
48077;BME280;33854;57.708;12.008;2023-04-01T03:24:56;100164.41;;;-3.41;100.00
48077;BME280;33854;57.708;12.008;2023-04-01T03:27:21;100152.50;;;-3.39;100.00
48077;BME280;33854;57.708;12.008;2023-04-01T03:29:47;100162.66;;;-3.44;100.00
48077;BME280;33854;57.708;12.008;2023-04-01T03:32:13;100170.34;;;-3.36;100.00
48077;BME280;33854;57.708;12.008;2023-04-01T03:34:38;100187.34;;;-3.38;100.00
48077;BME280;33854;57.708;12.008;2023-04-01T03:37:03;100184.81;;;-3.44;100.00
48077;BME280;33854;57.708;12.008;2023-04-01T03:39:30;100193.28;;;-3.50;100.00
48077;BME280;33854;57.708;12.008;2023-04-01T03:41:56;100179.69;;;-3.54;100.00
48077;BME280;33854;57.708;12.008;2023-04-01T03:44:21;100187.34;;;-3.54;100.00
48077;BME280;33854;57.708;12.008;2023-04-01T03:46:46;100186.47;;;-3.56;100.00
48077;BME280;33854;57.708;12.008;2023-04-01T03:49:12;100203.47;;;-3.55;100.00
48077;BME280;33854;57.708;12.008;2023-04-01T03:51:38;100201.75;;;-3.56;100.00
48077;BME280;33854;57.708;12.008;2023-04-01T03:54:04;100195.00;;;-3.54;100.00
48077;BME280;33854;57.708;12.008;2023-04-01T03:56:30;100205.22;;;-3.48;100.00
48077;BME280;33854;57.708;12.008;2023-04-01T03:58:56;100219.66;;;-3.51;100.00
48077;BME280;33854;57.708;12.008;2023-04-01T04:01:22;100214.53;;;-3.53;100.00
48077;BME280;33854;57.708;12.008;2023-04-01T04:03:48;100214.53;;;-3.57;100.00
48077;BME280;33854;57.708;12.008;2023-04-01T04:06:17;100208.56;;;-3.58;100.00
48077;BME280;33854;57.708;12.008;2023-04-01T04:08:43;100212.81;;;-3.60;100.00
48077;BME280;33854;57.708;12.008;2023-04-01T04:11:09;100201.75;;;-3.65;100.00
48077;BME280;33854;57.708;12.008;2023-04-01T04:13:35;100208.56;;;-3.65;100.00
48077;BME280;33854;57.708;12.008;2023-04-01T04:16:02;100212.78;;;-3.64;100.00
48077;BME280;33854;57.708;12.008;2023-04-01T04:18:27;100211.13;;;-3.62;100.00
48077;BME280;33854;57.708;12.008;2023-04-01T04:20:53;100218.75;;;-3.64;100.00
48077;BME280;33854;57.708;12.008;2023-04-01T04:23:18;100219.59;;;-3.68;100.00
48077;BME280;33854;57.708;12.008;2023-04-01T04:25:55;100224.69;;;-3.74;100.00
48077;BME280;33854;57.708;12.008;2023-04-01T04:28:20;100217.88;;;-3.67;100.00
48077;BME280;33854;57.708;12.008;2023-04-01T04:30:46;100221.28;;;-3.67;100.00
48077;BME280;33854;57.708;12.008;2023-04-01T04:33:11;100224.66;;;-3.72;100.00
48077;BME280;33854;57.708;12.008;2023-04-01T04:35:37;100231.50;;;-3.71;100.00
48077;BME280;33854;57.708;12.008;2023-04-01T04:38:02;100234.03;;;-3.70;100.00
48077;BME280;33854;57.708;12.008;2023-04-01T04:40:27;100220.41;;;-3.75;100.00
48077;BME280;33854;57.708;12.008;2023-04-01T04:42:53;100216.19;;;-3.74;100.00
48077;BME280;33854;57.708;12.008;2023-04-01T04:45:18;100214.47;;;-3.72;100.00
48077;BME280;33854;57.708;12.008;2023-04-01T04:47:44;100214.47;;;-3.69;100.00
48077;BME280;33854;57.708;12.008;2023-04-01T04:50:09;100220.44;;;-3.73;100.00
48077;BME280;33854;57.708;12.008;2023-04-01T04:52:35;100217.03;;;-3.74;100.00
48077;BME280;33854;57.708;12.008;2023-04-01T04:55:00;100224.66;;;-3.72;100.00
48077;BME280;33854;57.708;12.008;2023-04-01T04:57:26;100227.22;;;-3.77;100.00
48077;BME280;33854;57.708;12.008;2023-04-01T04:59:51;100223.81;;;-3.76;100.00
48077;BME280;33854;57.708;12.008;2023-04-01T05:02:17;100229.78;;;-3.72;100.00
48077;BME280;33854;57.708;12.008;2023-04-01T05:04:42;100228.94;;;-3.67;100.00
48077;BME280;33854;57.708;12.008;2023-04-01T05:07:08;100238.28;;;-3.64;100.00
48077;BME280;33854;57.708;12.008;2023-04-01T05:09:33;100251.06;;;-3.66;100.00
48077;BME280;33854;57.708;12.008;2023-04-01T05:11:59;100259.53;;;-3.70;100.00
48077;BME280;33854;57.708;12.008;2023-04-01T05:14:24;100261.25;;;-3.70;100.00
48077;BME280;33854;57.708;12.008;2023-04-01T05:16:50;100282.50;;;-3.64;100.00
48077;BME280;33854;57.708;12.008;2023-04-01T05:19:15;100271.44;;;-3.67;100.00
48077;BME280;33854;57.708;12.008;2023-04-01T05:21:41;100297.81;;;-3.61;100.00
48077;BME280;33854;57.708;12.008;2023-04-01T05:24:09;100303.78;;;-3.59;100.00
48077;BME280;33854;57.708;12.008;2023-04-01T05:26:35;100314.84;;;-3.55;100.00
48077;BME280;33854;57.708;12.008;2023-04-01T05:29:02;100328.47;;;-3.50;100.00
48077;BME280;33854;57.708;12.008;2023-04-01T05:31:27;100334.41;;;-3.50;100.00
48077;BME280;33854;57.708;12.008;2023-04-01T05:33:53;100341.25;;;-3.49;100.00
48077;BME280;33854;57.708;12.008;2023-04-01T05:36:19;100342.09;;;-3.47;100.00
48077;BME280;33854;57.708;12.008;2023-04-01T05:38:44;100354.03;;;-3.42;100.00
48077;BME280;33854;57.708;12.008;2023-04-01T05:41:11;100361.69;;;-3.39;100.00
48077;BME280;33854;57.708;12.008;2023-04-01T05:43:37;100369.38;;;-3.33;100.00
48077;BME280;33854;57.708;12.008;2023-04-01T05:46:03;100377.91;;;-3.25;100.00
48077;BME280;33854;57.708;12.008;2023-04-01T05:48:29;100378.78;;;-3.20;100.00
48077;BME280;33854;57.708;12.008;2023-04-01T05:50:55;100381.34;;;-3.16;100.00
48077;BME280;33854;57.708;12.008;2023-04-01T05:53:20;100383.91;;;-3.16;100.00
48077;BME280;33854;57.708;12.008;2023-04-01T05:55:46;100385.63;;;-3.13;100.00
48077;BME280;33854;57.708;12.008;2023-04-01T05:58:11;100394.16;;;-3.05;100.00
48077;BME280;33854;57.708;12.008;2023-04-01T06:00:36;100353.22;;;-3.29;100.00
48077;BME280;33854;57.708;12.008;2023-04-01T06:03:02;100403.50;;;-2.98;100.00
48077;BME280;33854;57.708;12.008;2023-04-01T06:05:30;100406.94;;;-2.96;100.00
48077;BME280;33854;57.708;12.008;2023-04-01T06:07:59;100393.28;;;-3.01;100.00
48077;BME280;33854;57.708;12.008;2023-04-01T06:25:29;100447.94;;;-2.45;100.00
48077;BME280;33854;57.708;12.008;2023-04-01T06:39:08;100463.34;;;-2.16;100.00
48077;BME280;33854;57.708;12.008;2023-04-01T06:44:16;100466.72;;;-2.00;100.00
48077;BME280;33854;57.708;12.008;2023-04-01T06:47:04;100471.88;;;-1.93;100.00
48077;BME280;33854;57.708;12.008;2023-04-01T06:54:52;100476.97;;;-1.82;100.00
48077;BME280;33854;57.708;12.008;2023-04-01T06:57:34;100483.81;;;-1.78;100.00
48077;BME280;33854;57.708;12.008;2023-04-01T07:00:03;100482.97;;;-1.69;100.00
48077;BME280;33854;57.708;12.008;2023-04-01T07:04:57;100494.88;;;-1.58;100.00
48077;BME280;33854;57.708;12.008;2023-04-01T07:07:41;100499.13;;;-1.51;100.00
48077;BME280;33854;57.708;12.008;2023-04-01T07:13:24;100505.94;;;-1.35;100.00
48077;BME280;33854;57.708;12.008;2023-04-01T07:16:08;100499.09;;;-1.25;100.00
48077;BME280;33854;57.708;12.008;2023-04-01T07:19:01;100493.97;;;-1.21;100.00
48077;BME280;33854;57.708;12.008;2023-04-01T07:21:32;100518.72;;;-1.12;100.00
48077;BME280;33854;57.708;12.008;2023-04-01T07:24:16;100517.84;;;-1.03;100.00
48077;BME280;33854;57.708;12.008;2023-04-01T07:26:43;100512.69;;;-1.05;100.00
48077;BME280;33854;57.708;12.008;2023-04-01T07:29:13;100522.94;;;-0.96;100.00
48077;BME280;33854;57.708;12.008;2023-04-01T07:34:35;100532.25;;;-0.80;100.00
48077;BME280;33854;57.708;12.008;2023-04-01T07:37:27;100545.09;;;-0.78;100.00
48077;BME280;33854;57.708;12.008;2023-04-01T07:43:05;100548.47;;;-0.67;100.00
48077;BME280;33854;57.708;12.008;2023-04-01T07:51:33;100557.78;;;-0.49;100.00
48077;BME280;33854;57.708;12.008;2023-04-01T07:54:44;100556.94;;;-0.47;100.00
48077;BME280;33854;57.708;12.008;2023-04-01T07:57:12;100555.19;;;-0.40;100.00
48077;BME280;33854;57.708;12.008;2023-04-01T08:15:58;100576.44;;;-0.13;100.00
48077;BME280;33854;57.708;12.008;2023-04-01T08:18:57;100580.66;;;-0.09;100.00
48077;BME280;33854;57.708;12.008;2023-04-01T08:21:42;100567.78;;;0.00;100.00
48077;BME280;33854;57.708;12.008;2023-04-01T08:24:18;100577.16;;;0.08;100.00
48077;BME280;33854;57.708;12.008;2023-04-01T08:26:49;100560.94;;;0.01;100.00
48077;BME280;33854;57.708;12.008;2023-04-01T08:29:40;100582.25;;;0.17;100.00
48077;BME280;33854;57.708;12.008;2023-04-01T08:32:11;100589.00;;;0.27;100.00
48077;BME280;33854;57.708;12.008;2023-04-01T08:34:40;100589.84;;;0.29;100.00
48077;BME280;33854;57.708;12.008;2023-04-01T08:37:24;100584.72;;;0.27;100.00
48077;BME280;33854;57.708;12.008;2023-04-01T08:39:58;100594.16;;;0.28;100.00
48077;BME280;33854;57.708;12.008;2023-04-01T08:42:31;100588.13;;;0.34;100.00
48077;BME280;33854;57.708;12.008;2023-04-01T09:01:52;100602.31;;;0.79;100.00
48077;BME280;33854;57.708;12.008;2023-04-01T09:04:31;100607.38;;;0.88;100.00
48077;BME280;33854;57.708;12.008;2023-04-01T09:07:45;100603.88;;;0.96;100.00
48077;BME280;33854;57.708;12.008;2023-04-01T09:12:53;100595.19;;;1.08;100.00
48077;BME280;33854;57.708;12.008;2023-04-01T09:18:39;100598.53;;;1.16;100.00
48077;BME280;33854;57.708;12.008;2023-04-01T09:26:44;100592.47;;;1.26;100.00
48077;BME280;33854;57.708;12.008;2023-04-01T09:30:06;100590.53;;;1.45;100.00
48077;BME280;33854;57.708;12.008;2023-04-01T09:35:03;100588.56;;;1.65;100.00
48077;BME280;33854;57.708;12.008;2023-04-01T09:43:16;100593.63;;;1.72;100.00
48077;BME280;33854;57.708;12.008;2023-04-01T09:46:03;100598.66;;;1.83;100.00
48077;BME280;33854;57.708;12.008;2023-04-01T09:54:24;100593.00;;;2.19;100.00
48077;BME280;33854;57.708;12.008;2023-04-01T10:17:23;100618.97;;;2.62;100.00
48077;BME280;33854;57.708;12.008;2023-04-01T10:20:06;100608.44;;;2.77;100.00
48077;BME280;33854;57.708;12.008;2023-04-01T10:22:48;100625.47;;;2.84;100.00
48077;BME280;33854;57.708;12.008;2023-04-01T10:37:00;100610.03;;;3.32;100.00
48077;BME280;33854;57.708;12.008;2023-04-01T10:53:32;100619.25;;;3.89;100.00
48077;BME280;33854;57.708;12.008;2023-04-01T11:07:16;100626.00;;;3.95;100.00
48077;BME280;33854;57.708;12.008;2023-04-01T11:15:58;100631.28;;;4.30;100.00
48077;BME280;33854;57.708;12.008;2023-04-01T11:32:21;100644.91;;;4.74;100.00
48077;BME280;33854;57.708;12.008;2023-04-01T11:35:12;100640.28;;;4.86;100.00
48077;BME280;33854;57.708;12.008;2023-04-01T11:40:29;100637.91;;;5.12;100.00
48077;BME280;33854;57.708;12.008;2023-04-01T11:43:24;100656.81;;;5.14;100.00
48077;BME280;33854;57.708;12.008;2023-04-01T11:46:46;100647.09;;;5.24;100.00
48077;BME280;33854;57.708;12.008;2023-04-01T12:05:27;100653.03;;;6.78;100.00
48077;BME280;33854;57.708;12.008;2023-04-01T12:08:13;100654.13;;;6.98;100.00
48077;BME280;33854;57.708;12.008;2023-04-01T12:13:41;100667.84;;;7.52;100.00
48077;BME280;33854;57.708;12.008;2023-04-01T12:16:43;100667.56;;;7.84;100.00
48077;BME280;33854;57.708;12.008;2023-04-01T12:19:39;100676.50;;;8.48;100.00
48077;BME280;33854;57.708;12.008;2023-04-01T12:30:35;100688.19;;;9.03;88.45
48077;BME280;33854;57.708;12.008;2023-04-01T12:36:40;100697.13;;;9.99;100.00
48077;BME280;33854;57.708;12.008;2023-04-01T12:42:03;100706.06;;;9.73;99.27
48077;BME280;33854;57.708;12.008;2023-04-01T12:50:16;100709.28;;;10.39;87.52
48077;BME280;33854;57.708;12.008;2023-04-01T12:53:01;100716.31;;;9.57;80.10
48077;BME280;33854;57.708;12.008;2023-04-01T12:55:40;100717.16;;;9.78;80.11
48077;BME280;33854;57.708;12.008;2023-04-01T13:18:56;100751.19;;;11.09;52.23
48077;BME280;33854;57.708;12.008;2023-04-01T13:30:39;100749.53;;;11.78;48.19
48077;BME280;33854;57.708;12.008;2023-04-01T13:38:52;100758.78;;;11.85;45.69
48077;BME280;33854;57.708;12.008;2023-04-01T13:41:39;100754.16;;;12.55;45.66
48077;BME280;33854;57.708;12.008;2023-04-01T13:44:11;100761.13;;;12.88;43.93
48077;BME280;33854;57.708;12.008;2023-04-01T13:52:49;100765.66;;;12.69;42.71
48077;BME280;33854;57.708;12.008;2023-04-01T14:13:24;100765.78;;;13.30;40.10
48077;BME280;33854;57.708;12.008;2023-04-01T14:32:10;100780.72;;;15.02;39.53
48077;BME280;33854;57.708;12.008;2023-04-01T14:41:13;100809.63;;;13.87;38.02
48077;BME280;33854;57.708;12.008;2023-04-01T14:44:05;100806.13;;;15.29;38.03
48077;BME280;33854;57.708;12.008;2023-04-01T14:49:30;100810.66;;;15.40;36.68
48077;BME280;33854;57.708;12.008;2023-04-01T14:54:41;100812.50;;;16.18;36.56
48077;BME280;33854;57.708;12.008;2023-04-01T14:57:16;100809.00;;;15.66;36.08
48077;BME280;33854;57.708;12.008;2023-04-01T15:05:15;100820.19;;;16.84;35.11
48077;BME280;33854;57.708;12.008;2023-04-01T15:08:05;100833.03;;;16.38;35.16
48077;BME280;33854;57.708;12.008;2023-04-01T15:32:05;100854.78;;;18.46;32.31
48077;BME280;33854;57.708;12.008;2023-04-01T15:38:34;100862.19;;;19.09;31.54
48077;BME280;33854;57.708;12.008;2023-04-01T15:40:58;100867.34;;;18.66;31.10
48077;BME280;33854;57.708;12.008;2023-04-01T16:03:14;100903.03;;;16.80;35.37
48077;BME280;33854;57.708;12.008;2023-04-01T16:16:57;100926.56;;;16.83;34.67
48077;BME280;33854;57.708;12.008;2023-04-01T16:19:36;100936.59;;;16.39;35.24
48077;BME280;33854;57.708;12.008;2023-04-01T16:30:39;100953.69;;;16.46;36.03
48077;BME280;33854;57.708;12.008;2023-04-01T16:33:27;100947.13;;;16.00;35.96
48077;BME280;33854;57.708;12.008;2023-04-01T16:39:22;100956.38;;;15.92;37.59
48077;BME280;33854;57.708;12.008;2023-04-01T16:41:52;100961.22;;;15.72;36.74
48077;BME280;33854;57.708;12.008;2023-04-01T16:44:26;100969.34;;;15.95;37.19
48077;BME280;33854;57.708;12.008;2023-04-01T16:46:56;100962.50;;;16.45;36.34
48077;BME280;33854;57.708;12.008;2023-04-01T16:49:42;100978.94;;;16.36;35.90
48077;BME280;33854;57.708;12.008;2023-04-01T17:02:31;101002.66;;;15.68;37.43
48077;BME280;33854;57.708;12.008;2023-04-01T17:05:08;101017.34;;;15.58;37.79
48077;BME280;33854;57.708;12.008;2023-04-01T17:19:15;101049.66;;;13.80;41.45
48077;BME280;33854;57.708;12.008;2023-04-01T17:21:53;101057.16;;;13.70;41.95
48077;BME280;33854;57.708;12.008;2023-04-01T17:24:43;101059.66;;;13.56;42.10
48077;BME280;33854;57.708;12.008;2023-04-01T17:32:36;101099.13;;;9.87;49.79
48077;BME280;33854;57.708;12.008;2023-04-01T17:35:59;101099.88;;;8.39;58.26
48077;BME280;33854;57.708;12.008;2023-04-01T17:41:31;101116.84;;;6.98;72.29
48077;BME280;33854;57.708;12.008;2023-04-01T17:58:20;101150.94;;;5.16;100.00
48077;BME280;33854;57.708;12.008;2023-04-01T18:04:06;101170.44;;;4.85;100.00
48077;BME280;33854;57.708;12.008;2023-04-01T18:25:22;101204.94;;;4.21;100.00
48077;BME280;33854;57.708;12.008;2023-04-01T18:28:32;101208.41;;;4.17;100.00
48077;BME280;33854;57.708;12.008;2023-04-01T18:39:17;101225.09;;;3.92;100.00
48077;BME280;33854;57.708;12.008;2023-04-01T18:44:52;101238.91;;;3.85;100.00
48077;BME280;33854;57.708;12.008;2023-04-01T18:50:43;101251.97;;;3.71;100.00
48077;BME280;33854;57.708;12.008;2023-04-01T18:53:19;101247.72;;;3.66;100.00
48077;BME280;33854;57.708;12.008;2023-04-01T18:55:51;101255.31;;;3.79;100.00
48077;BME280;33854;57.708;12.008;2023-04-01T19:01:12;101268.91;;;3.98;100.00
48077;BME280;33854;57.708;12.008;2023-04-01T19:04:00;101251.69;;;3.97;100.00
48077;BME280;33854;57.708;12.008;2023-04-01T19:06:50;101267.09;;;4.06;100.00
48077;BME280;33854;57.708;12.008;2023-04-01T19:15:01;101280.94;;;3.99;100.00
48077;BME280;33854;57.708;12.008;2023-04-01T19:20:34;101299.09;;;3.91;100.00
48077;BME280;33854;57.708;12.008;2023-04-01T19:25:48;101295.78;;;3.80;100.00
48077;BME280;33854;57.708;12.008;2023-04-01T19:36:39;101318.25;;;3.69;100.00
48077;BME280;33854;57.708;12.008;2023-04-01T19:47:30;101337.38;;;3.42;100.00
48077;BME280;33854;57.708;12.008;2023-04-01T19:52:46;101335.03;;;3.09;100.00
48077;BME280;33854;57.708;12.008;2023-04-01T19:55:36;101353.06;;;3.15;100.00
48077;BME280;33854;57.708;12.008;2023-04-01T19:58:09;101359.06;;;3.17;100.00
48077;BME280;33854;57.708;12.008;2023-04-01T20:00:51;101362.50;;;3.18;100.00
48077;BME280;33854;57.708;12.008;2023-04-01T20:03:41;101364.28;;;3.05;100.00
48077;BME280;33854;57.708;12.008;2023-04-01T20:14:54;101380.00;;;2.40;100.00
48077;BME280;33854;57.708;12.008;2023-04-01T20:20:02;101392.91;;;2.31;100.00
48077;BME280;33854;57.708;12.008;2023-04-01T20:27:54;101401.50;;;2.16;100.00
48077;BME280;33854;57.708;12.008;2023-04-01T20:36:08;101408.38;;;1.78;100.00
48077;BME280;33854;57.708;12.008;2023-04-01T20:46:32;101422.06;;;1.39;100.00
48077;BME280;33854;57.708;12.008;2023-04-01T20:49:29;101435.72;;;1.17;100.00
48077;BME280;33854;57.708;12.008;2023-04-01T20:52:17;101440.03;;;1.29;100.00
48077;BME280;33854;57.708;12.008;2023-04-01T20:57:12;101440.06;;;1.53;100.00
48077;BME280;33854;57.708;12.008;2023-04-01T21:02:59;101455.53;;;1.62;100.00
48077;BME280;33854;57.708;12.008;2023-04-01T21:13:20;101464.78;;;1.02;100.00
48077;BME280;33854;57.708;12.008;2023-04-01T21:41:09;101490.00;;;0.27;100.00
48077;BME280;33854;57.708;12.008;2023-04-01T21:55:16;101496.56;;;-0.03;100.00
48077;BME280;33854;57.708;12.008;2023-04-01T22:00:39;101508.44;;;-0.14;100.00
48077;BME280;33854;57.708;12.008;2023-04-01T22:19:12;101510.13;;;-0.19;100.00
48077;BME280;33854;57.708;12.008;2023-04-01T22:26:59;101504.81;;;-0.34;100.00
48077;BME280;33854;57.708;12.008;2023-04-01T22:29:34;101506.56;;;-0.33;100.00
48077;BME280;33854;57.708;12.008;2023-04-01T22:32:24;101507.38;;;-0.34;100.00
48077;BME280;33854;57.708;12.008;2023-04-01T22:42:43;101507.13;;;-0.58;100.00
48077;BME280;33854;57.708;12.008;2023-04-01T22:50:25;101507.06;;;-0.63;100.00
48077;BME280;33854;57.708;12.008;2023-04-01T22:53:05;101508.78;;;-0.62;100.00
48077;BME280;33854;57.708;12.008;2023-04-01T22:55:34;101498.50;;;-0.63;100.00
48077;BME280;33854;57.708;12.008;2023-04-01T22:58:07;101510.59;;;-0.53;100.00
48077;BME280;33854;57.708;12.008;2023-04-01T23:00:36;101515.81;;;-0.47;100.00
48077;BME280;33854;57.708;12.008;2023-04-01T23:05:35;101510.53;;;-0.61;100.00
48077;BME280;33854;57.708;12.008;2023-04-01T23:10:58;101495.75;;;-0.81;100.00
48077;BME280;33854;57.708;12.008;2023-04-01T23:13:30;101505.97;;;-0.83;100.00
48077;BME280;33854;57.708;12.008;2023-04-01T23:15:59;101494.84;;;-0.85;100.00
48077;BME280;33854;57.708;12.008;2023-04-01T23:26:17;101506.22;;;-0.60;100.00
48077;BME280;33854;57.708;12.008;2023-04-01T23:28:49;101509.69;;;-0.58;100.00
48077;BME280;33854;57.708;12.008;2023-04-01T23:33:56;101513.91;;;-0.62;100.00
48077;BME280;33854;57.708;12.008;2023-04-01T23:36:23;101511.25;;;-0.71;100.00
48077;BME280;33854;57.708;12.008;2023-04-01T23:38:50;101509.50;;;-0.72;100.00
48077;BME280;33854;57.708;12.008;2023-04-01T23:41:19;101521.63;;;-0.62;100.00
48077;BME280;33854;57.708;12.008;2023-04-01T23:43:51;101506.97;;;-0.70;100.00
48077;BME280;33854;57.708;12.008;2023-04-01T23:46:20;101508.75;;;-0.65;100.00
48077;BME280;33854;57.708;12.008;2023-04-01T23:48:46;101505.22;;;-0.76;100.00
48077;BME280;33854;57.708;12.008;2023-04-01T23:51:29;101537.81;;;-0.63;100.00
48077;BME280;33854;57.708;12.008;2023-04-01T23:54:13;101534.44;;;-0.62;100.00